createdAt,value
2018-06-14T00:00:22.770Z,6.90
2018-06-14T00:02:50.325Z,6.33
2018-06-14T00:05:17.903Z,6.23
2018-06-14T00:07:45.433Z,6.20
2018-06-14T00:10:13.027Z,7.07
2018-06-14T00:12:40.986Z,7.10
2018-06-14T00:15:09.575Z,6.67
2018-06-14T00:17:37.130Z,6.80
2018-06-14T00:20:05.136Z,6.57
2018-06-14T00:22:32.737Z,6.97
2018-06-14T00:25:00.309Z,6.53
2018-06-14T00:27:27.823Z,6.63
2018-06-14T00:29:55.875Z,6.73
2018-06-14T00:32:23.582Z,7.50
2018-06-14T00:34:51.106Z,7.10
2018-06-14T00:37:18.634Z,7.20
2018-06-14T00:39:46.181Z,7.40
2018-06-14T00:42:13.717Z,6.67
2018-06-14T00:44:41.342Z,7.60
2018-06-14T00:47:08.898Z,7.30
2018-06-14T00:49:36.414Z,7.13
2018-06-14T00:52:03.999Z,7.27
2018-06-14T00:54:31.551Z,6.87
2018-06-14T00:57:10.402Z,6.30
2018-06-14T00:59:37.950Z,7.10
2018-06-14T01:02:05.588Z,6.70
2018-06-14T01:04:33.134Z,6.93
2018-06-14T01:07:00.714Z,6.87
2018-06-14T01:09:28.226Z,6.30
2018-06-14T01:11:55.771Z,7.60
2018-06-14T01:14:23.318Z,7.27
2018-06-14T01:16:50.835Z,7.07
2018-06-14T01:19:18.382Z,7.60
2018-06-14T01:21:45.953Z,7.43
2018-06-14T01:24:13.519Z,7.23
2018-06-14T01:26:41.074Z,6.77
2018-06-14T01:29:08.645Z,6.90
2018-06-14T01:31:36.170Z,6.97
2018-06-14T01:34:03.682Z,7.10
2018-06-14T01:36:31.233Z,7.23
2018-06-14T01:38:58.740Z,6.63
2018-06-14T01:41:26.248Z,7.23
2018-06-14T01:43:53.838Z,6.83
2018-06-14T01:46:21.370Z,6.57
2018-06-14T01:48:48.899Z,6.60
2018-06-14T01:51:16.439Z,7.03
2018-06-14T01:53:43.970Z,6.87
2018-06-14T01:56:11.522Z,6.50
2018-06-14T01:58:39.077Z,6.60
2018-06-14T02:01:06.577Z,6.87
2018-06-14T02:03:34.090Z,6.10
2018-06-14T02:06:01.650Z,7.10
2018-06-14T02:08:29.226Z,6.47
2018-06-14T02:10:56.768Z,6.60
2018-06-14T02:13:24.301Z,6.70
2018-06-14T02:15:51.834Z,7.03
2018-06-14T02:18:19.477Z,6.40
2018-06-14T02:20:47.023Z,7.03
2018-06-14T02:23:14.521Z,6.80
2018-06-14T02:25:42.042Z,6.80
2018-06-14T02:28:09.622Z,6.70
2018-06-14T02:30:37.141Z,7.00
2018-06-14T02:33:04.870Z,6.17
2018-06-14T02:35:32.423Z,6.57
2018-06-14T02:38:00.014Z,7.00
2018-06-14T02:40:27.556Z,6.80
2018-06-14T02:42:55.178Z,6.90
2018-06-14T02:45:22.709Z,5.77
2018-06-14T02:47:50.228Z,6.90
2018-06-14T02:50:17.766Z,6.30
2018-06-14T02:52:45.295Z,6.93
2018-06-14T02:55:12.833Z,6.77
2018-06-14T02:57:40.417Z,6.80
2018-06-14T03:00:08.016Z,6.20
2018-06-14T03:02:35.554Z,6.67
2018-06-14T03:05:03.267Z,9.63
2018-06-14T03:07:34.912Z,7.10
2018-06-14T03:10:03.525Z,6.30
2018-06-14T03:12:31.254Z,6.13
2018-06-14T03:14:58.785Z,6.30
2018-06-14T03:17:26.353Z,6.33
2018-06-14T03:19:53.926Z,5.43
2018-06-14T03:22:22.795Z,6.67
2018-06-14T03:24:50.456Z,6.33
2018-06-14T03:27:17.977Z,6.10
2018-06-14T03:29:45.821Z,5.67
2018-06-14T03:32:13.641Z,6.03
2018-06-14T03:34:41.177Z,5.37
2018-06-14T03:37:09.494Z,5.73
2018-06-14T03:39:37.103Z,6.50
2018-06-14T03:42:05.642Z,5.87
2018-06-14T03:44:34.138Z,6.33
2018-06-14T03:47:02.119Z,5.73
2018-06-14T03:49:29.622Z,6.10
2018-06-14T03:51:57.144Z,6.27
2018-06-14T03:54:24.705Z,5.93
2018-06-14T03:56:52.240Z,6.17
2018-06-14T03:59:19.750Z,7.30
2018-06-14T04:01:47.302Z,6.83
2018-06-14T04:04:14.811Z,6.10
2018-06-14T04:06:42.323Z,6.40
2018-06-14T04:09:11.094Z,6.67
2018-06-14T04:11:38.751Z,6.43
2018-06-14T04:14:06.558Z,6.37
2018-06-14T04:16:34.550Z,6.53
2018-06-14T04:19:02.070Z,6.50
2018-06-14T04:21:29.594Z,6.27
2018-06-14T04:23:57.155Z,8.23
2018-06-14T04:26:24.778Z,7.13
2018-06-14T04:28:52.410Z,7.07
2018-06-14T04:31:19.986Z,7.90
2018-06-14T04:33:47.515Z,7.17
2018-06-14T04:36:15.100Z,8.20
2018-06-14T04:38:42.886Z,7.37
2018-06-14T04:41:10.426Z,10.27
2018-06-14T04:43:37.937Z,7.13
2018-06-14T04:46:05.762Z,7.40
2018-06-14T04:48:33.290Z,7.17
2018-06-14T04:51:00.800Z,7.30
2018-06-14T04:53:28.377Z,7.37
2018-06-14T04:55:56.002Z,7.43
2018-06-14T04:58:23.534Z,7.60
2018-06-14T05:00:51.123Z,8.33
2018-06-14T05:03:18.654Z,6.97
2018-06-14T05:05:46.243Z,7.40
2018-06-14T05:08:18.605Z,8.03
2018-06-14T05:10:46.120Z,7.43
2018-06-14T05:13:13.672Z,7.60
2018-06-14T05:15:41.369Z,7.83
2018-06-14T05:18:08.941Z,7.33
2018-06-14T05:20:36.462Z,6.70
2018-06-14T05:23:04.030Z,6.43
2018-06-14T05:25:31.570Z,7.33
2018-06-14T05:27:59.079Z,7.60
2018-06-14T05:30:26.629Z,8.97
2018-06-14T05:32:54.143Z,8.00
2018-06-14T05:35:21.680Z,7.50
2018-06-14T05:37:49.493Z,7.70
2018-06-14T05:40:17.010Z,7.47
2018-06-14T05:42:44.534Z,7.40
2018-06-14T05:45:12.086Z,7.70
2018-06-14T05:47:39.641Z,8.03
2018-06-14T05:50:07.175Z,7.77
2018-06-14T05:52:34.750Z,7.77
2018-06-14T05:55:02.310Z,10.53
2018-06-14T05:57:29.846Z,6.63
2018-06-14T05:59:57.397Z,7.37
2018-06-14T06:02:24.935Z,7.00
2018-06-14T06:04:52.534Z,7.00
2018-06-14T06:07:20.086Z,6.53
2018-06-14T06:09:47.614Z,5.93
2018-06-14T06:12:15.207Z,6.13
2018-06-14T06:14:42.767Z,6.27
2018-06-14T06:17:10.342Z,5.70
2018-06-14T06:19:37.878Z,6.80
2018-06-14T06:22:05.488Z,6.43
2018-06-14T06:24:33.011Z,6.20
2018-06-14T06:27:00.926Z,6.03
2018-06-14T06:29:28.501Z,4.90
2018-06-14T06:31:56.014Z,5.30
2018-06-14T06:34:23.522Z,6.67
2018-06-14T06:36:51.098Z,5.10
2018-06-14T06:39:18.661Z,6.03
2018-06-14T06:41:46.188Z,5.70
2018-06-14T06:44:13.756Z,5.03
2018-06-14T06:46:41.301Z,5.57
2018-06-14T06:49:08.818Z,5.50
2018-06-14T06:51:36.370Z,8.80
2018-06-14T06:54:03.897Z,5.53
2018-06-14T06:56:31.422Z,5.67
2018-06-14T06:58:59.004Z,5.40
2018-06-14T07:01:26.536Z,5.77
2018-06-14T07:03:54.059Z,5.53
2018-06-14T07:06:21.636Z,5.43
2018-06-14T07:08:49.541Z,6.10
2018-06-14T07:11:17.094Z,5.80
2018-06-14T07:13:44.649Z,6.60
2018-06-14T07:16:12.211Z,5.53
2018-06-14T07:18:39.761Z,5.23
2018-06-14T07:21:07.335Z,6.33
2018-06-14T07:23:34.874Z,5.77
2018-06-14T07:26:02.394Z,6.37
2018-06-14T07:28:29.960Z,7.37
2018-06-14T07:30:57.514Z,6.23
2018-06-14T07:33:25.050Z,6.63
2018-06-14T07:35:52.595Z,5.80
2018-06-14T07:38:20.118Z,5.90
2018-06-14T07:40:47.666Z,6.30
2018-06-14T07:43:15.231Z,6.33
2018-06-14T07:45:42.749Z,6.97
2018-06-14T07:48:10.256Z,6.93
2018-06-14T07:50:37.809Z,6.50
2018-06-14T07:53:05.325Z,6.77
2018-06-14T07:55:32.865Z,6.00
2018-06-14T07:58:00.410Z,5.70
2018-06-14T08:00:27.926Z,6.60
2018-06-14T08:02:55.450Z,6.23
2018-06-14T08:05:23.031Z,6.00
2018-06-14T08:07:50.571Z,5.63
2018-06-14T08:10:18.091Z,5.87
2018-06-14T08:12:45.654Z,5.70
2018-06-14T08:15:13.211Z,6.50
2018-06-14T08:17:40.742Z,5.53
2018-06-14T08:20:08.308Z,5.63
2018-06-14T08:22:35.830Z,5.67
2018-06-14T08:25:03.386Z,5.77
2018-06-14T08:27:30.951Z,6.87
2018-06-14T08:29:58.470Z,5.10
2018-06-14T08:32:26.007Z,5.87
2018-06-14T08:34:53.546Z,4.83
2018-06-14T08:37:25.637Z,4.77
2018-06-14T08:39:53.179Z,4.90
2018-06-14T08:42:20.726Z,4.50
2018-06-14T08:44:48.280Z,5.10
2018-06-14T08:47:15.831Z,4.93
2018-06-14T08:49:43.345Z,4.70
2018-06-14T08:52:10.874Z,5.00
2018-06-14T08:54:38.419Z,5.03
2018-06-14T08:57:06.015Z,5.20
2018-06-14T08:59:33.522Z,5.50
2018-06-14T09:02:01.075Z,5.20
2018-06-14T09:04:28.638Z,5.30
2018-06-14T09:06:56.182Z,5.33
2018-06-14T09:09:23.749Z,5.60
2018-06-14T09:11:51.314Z,4.50
2018-06-14T09:14:18.906Z,5.07
2018-06-14T09:16:46.426Z,4.20
2018-06-14T09:19:13.958Z,5.10
2018-06-14T09:21:41.492Z,4.30
2018-06-14T09:24:09.050Z,4.37
2018-06-14T09:29:10.938Z,4.37
2018-06-14T09:31:38.570Z,4.50
2018-06-14T09:34:06.139Z,5.27
2018-06-14T09:36:34.282Z,4.27
2018-06-14T09:39:01.898Z,4.27
2018-06-14T09:41:29.453Z,5.13
2018-06-14T09:43:57.010Z,3.87
2018-06-14T09:46:24.642Z,3.90
2018-06-14T09:48:57.617Z,4.60
2018-06-14T09:51:25.183Z,4.00
2018-06-14T09:53:52.734Z,5.23
2018-06-14T09:56:20.302Z,3.90
2018-06-14T09:58:47.811Z,3.97
2018-06-14T10:01:15.360Z,3.83
2018-06-14T10:03:42.935Z,3.97
2018-06-14T10:06:10.448Z,3.70
2018-06-14T10:08:37.966Z,4.20
2018-06-14T10:11:05.582Z,3.90
2018-06-14T10:13:33.094Z,4.40
2018-06-14T10:16:00.781Z,3.90
2018-06-14T10:18:28.326Z,3.80
2018-06-14T10:20:55.903Z,4.20
2018-06-14T10:23:23.413Z,3.87
2018-06-14T10:25:51.127Z,4.13
2018-06-14T10:28:18.666Z,4.20
2018-06-14T10:30:46.194Z,7.00
2018-06-14T10:33:13.818Z,4.27
2018-06-14T10:35:41.326Z,4.43
2018-06-14T10:38:09.077Z,4.30
2018-06-14T10:40:36.647Z,4.40
2018-06-14T10:43:05.390Z,4.37
2018-06-14T10:45:33.562Z,4.37
2018-06-14T10:48:01.451Z,3.93
2018-06-14T10:50:28.962Z,3.77
2018-06-14T10:52:56.504Z,6.40
2018-06-14T10:55:24.085Z,5.00
2018-06-14T10:57:51.658Z,3.80
2018-06-14T11:00:19.291Z,3.93
2018-06-14T11:02:46.845Z,11.80
2018-06-14T11:05:14.377Z,3.27
2018-06-14T11:07:41.898Z,3.73
2018-06-14T11:10:09.431Z,3.50
2018-06-14T11:12:36.954Z,3.70
2018-06-14T11:15:04.538Z,3.10
2018-06-14T11:17:32.078Z,3.40
2018-06-14T11:19:59.594Z,3.60
2018-06-14T11:22:27.086Z,3.47
2018-06-14T11:24:59.335Z,3.90
2018-06-14T11:27:26.881Z,3.93
2018-06-14T11:29:54.442Z,3.73
2018-06-14T11:32:22.009Z,3.90
2018-06-14T11:34:49.575Z,3.43
2018-06-14T11:37:17.166Z,3.17
2018-06-14T11:39:44.720Z,3.20
2018-06-14T11:42:12.250Z,3.80
2018-06-14T11:44:39.786Z,3.50
2018-06-14T11:47:07.334Z,3.37
2018-06-14T11:49:34.841Z,4.10
2018-06-14T11:52:02.346Z,3.23
2018-06-14T11:54:30.143Z,3.33
2018-06-14T11:56:57.679Z,3.77
2018-06-14T11:59:25.223Z,3.00
2018-06-14T12:01:52.830Z,3.40
2018-06-14T12:04:20.354Z,3.20
2018-06-14T12:06:47.869Z,3.20
2018-06-14T12:09:15.474Z,3.40
2018-06-14T12:11:43.021Z,3.77
2018-06-14T12:14:10.555Z,7.33
2018-06-14T12:16:38.094Z,3.60
2018-06-14T12:19:05.602Z,3.37
2018-06-14T12:21:33.107Z,4.00
2018-06-14T12:24:00.679Z,5.83
2018-06-14T12:26:28.383Z,3.87
2018-06-14T12:28:55.939Z,3.03
2018-06-14T12:31:23.507Z,4.33
2018-06-14T12:33:51.014Z,3.93
2018-06-14T12:36:18.530Z,3.20
2018-06-14T12:38:46.088Z,3.40
2018-06-14T12:41:13.590Z,3.00
2018-06-14T12:43:41.110Z,3.47
2018-06-14T12:46:08.667Z,3.40
2018-06-14T12:48:36.185Z,3.43
2018-06-14T12:51:03.710Z,4.03
2018-06-14T12:53:31.263Z,3.10
2018-06-14T12:55:58.790Z,3.30
2018-06-14T12:58:26.358Z,3.37
2018-06-14T13:00:53.913Z,3.70
2018-06-14T13:03:21.431Z,4.03
2018-06-14T13:05:48.954Z,4.13
2018-06-14T13:08:16.537Z,3.63
2018-06-14T13:10:44.062Z,3.80
2018-06-14T13:13:11.599Z,3.40
2018-06-14T13:15:39.147Z,4.13
2018-06-14T13:18:06.699Z,3.93
2018-06-14T13:20:34.218Z,3.70
2018-06-14T13:23:01.794Z,3.90
2018-06-14T13:25:29.401Z,4.23
2018-06-14T13:27:56.887Z,3.30
2018-06-14T13:30:24.466Z,4.03
2018-06-14T13:32:52.414Z,4.20
2018-06-14T13:35:19.934Z,4.37
2018-06-14T13:37:47.481Z,4.07
2018-06-14T13:40:14.997Z,4.30
2018-06-14T13:42:42.514Z,3.57
2018-06-14T13:45:10.078Z,4.43
2018-06-14T13:47:38.246Z,3.57
2018-06-14T13:50:05.779Z,3.30
2018-06-14T13:52:33.727Z,3.87
2018-06-14T13:55:01.262Z,3.90
2018-06-14T13:57:28.799Z,3.27
2018-06-14T13:59:56.425Z,3.60
2018-06-14T14:02:23.906Z,3.63
2018-06-14T14:04:51.406Z,3.23
2018-06-14T14:07:24.630Z,3.33
2018-06-14T14:09:52.149Z,3.70
2018-06-14T14:12:19.686Z,3.77
2018-06-14T14:14:47.247Z,4.43
2018-06-14T14:17:14.783Z,3.70
2018-06-14T14:19:42.310Z,4.10
2018-06-14T14:22:09.878Z,3.77
2018-06-14T14:24:37.403Z,4.00
2018-06-14T14:27:04.954Z,4.00
2018-06-14T14:29:32.481Z,4.20
2018-06-14T14:32:00.024Z,4.17
2018-06-14T14:34:27.558Z,4.43
2018-06-14T14:36:55.103Z,3.87
2018-06-14T14:39:22.659Z,3.83
2018-06-14T14:41:50.186Z,3.57
2018-06-14T14:44:17.749Z,3.53
2018-06-14T14:46:45.286Z,3.53
2018-06-14T14:49:12.817Z,3.63
2018-06-14T14:51:40.392Z,4.30
2018-06-14T14:54:07.927Z,4.20
2018-06-14T14:56:35.475Z,3.90
2018-06-14T14:59:03.094Z,3.23
2018-06-14T15:01:30.616Z,4.03
2018-06-14T15:03:58.154Z,3.97
2018-06-14T15:06:25.731Z,3.60
2018-06-14T15:08:53.253Z,4.23
2018-06-14T15:11:21.502Z,4.30
2018-06-14T15:13:49.098Z,4.00
2018-06-14T15:16:16.628Z,3.80
2018-06-14T15:18:44.169Z,4.10
2018-06-14T15:21:11.738Z,3.67
2018-06-14T15:23:39.264Z,4.20
2018-06-14T15:26:06.790Z,4.33
2018-06-14T15:28:34.363Z,4.50
2018-06-14T15:31:01.920Z,4.20
2018-06-14T15:33:29.458Z,5.00
2018-06-14T15:35:57.120Z,3.90
2018-06-14T15:38:24.679Z,4.40
2018-06-14T15:40:52.198Z,4.37
2018-06-14T15:43:19.755Z,4.23
2018-06-14T15:45:47.311Z,4.53
2018-06-14T15:48:14.895Z,4.50
2018-06-14T15:50:42.495Z,5.00
2018-06-14T15:53:10.038Z,4.70
2018-06-14T15:56:00.511Z,4.13
2018-06-14T15:58:28.555Z,3.90
2018-06-14T16:00:56.313Z,4.10
2018-06-14T16:03:24.666Z,3.17
2018-06-14T16:05:52.177Z,3.80
2018-06-14T16:08:19.749Z,4.10
2018-06-14T16:10:47.338Z,3.70
2018-06-14T16:13:14.890Z,4.50
2018-06-14T16:15:42.414Z,3.83
2018-06-14T16:18:09.971Z,3.80
2018-06-14T16:20:37.494Z,3.40
2018-06-14T16:23:05.189Z,3.27
2018-06-14T16:25:32.747Z,4.07
2018-06-14T16:28:00.299Z,4.40
2018-06-14T16:30:27.811Z,3.50
2018-06-14T16:32:55.359Z,3.77
2018-06-14T16:35:22.882Z,3.93
2018-06-14T16:37:50.501Z,3.33
2018-06-14T16:40:18.168Z,3.67
2018-06-14T16:42:45.738Z,3.40
2018-06-14T16:45:13.254Z,3.23
2018-06-14T16:47:41.270Z,3.40
2018-06-14T16:50:08.830Z,3.77
2018-06-14T16:52:36.401Z,3.70
2018-06-14T16:55:03.992Z,3.63
2018-06-14T16:57:31.529Z,3.63
2018-06-14T16:59:59.057Z,3.83
2018-06-14T17:02:26.713Z,3.47
2018-06-14T17:04:54.285Z,3.40
2018-06-14T17:07:21.819Z,3.40
2018-06-14T17:09:49.364Z,2.53
2018-06-14T17:12:16.899Z,2.67
2018-06-14T17:14:44.422Z,3.37
2018-06-14T17:17:11.986Z,3.00
2018-06-14T17:19:39.503Z,2.70
2018-06-14T17:22:07.090Z,2.70
2018-06-14T17:24:34.669Z,2.80
2018-06-14T17:27:02.202Z,3.20
2018-06-14T17:29:29.722Z,3.17
2018-06-14T17:31:57.270Z,3.20
2018-06-14T17:34:24.789Z,3.00
2018-06-14T17:36:52.325Z,2.70
2018-06-14T17:39:19.862Z,2.70
2018-06-14T17:41:48.622Z,3.27
2018-06-14T17:44:16.127Z,2.80
2018-06-14T17:46:43.706Z,3.13
2018-06-14T17:49:11.225Z,2.60
2018-06-14T17:51:38.759Z,2.90
2018-06-14T17:54:06.314Z,3.10
2018-06-14T17:56:33.856Z,2.70
2018-06-14T17:59:01.408Z,2.83
2018-06-14T18:01:29.017Z,2.80
2018-06-14T18:03:56.517Z,3.00
2018-06-14T18:06:24.079Z,11.23
2018-06-14T18:08:51.618Z,5.10
2018-06-14T18:11:19.154Z,3.17
2018-06-14T18:13:46.682Z,2.67
2018-06-14T18:16:14.224Z,2.83
2018-06-14T18:18:41.778Z,2.33
2018-06-14T18:21:09.286Z,2.33
2018-06-14T18:23:36.858Z,2.30
2018-06-14T18:26:04.386Z,2.53
2018-06-14T18:28:31.904Z,2.63
2018-06-14T18:30:59.485Z,2.40
2018-06-14T18:33:27.019Z,2.50
2018-06-14T18:35:54.538Z,3.47
2018-06-14T18:38:22.087Z,3.13
2018-06-14T18:40:49.595Z,3.30
2018-06-14T18:43:17.122Z,2.87
2018-06-14T18:45:44.679Z,3.10
2018-06-14T18:48:12.229Z,2.60
2018-06-14T18:50:39.771Z,2.90
2018-06-14T18:53:07.326Z,2.50
2018-06-14T18:55:35.405Z,2.50
2018-06-14T18:58:07.049Z,2.40
2018-06-14T19:00:38.714Z,2.60
2018-06-14T19:03:07.102Z,2.67
2018-06-14T19:05:34.756Z,2.73
2018-06-14T19:08:02.298Z,2.50
2018-06-14T19:10:29.838Z,2.50
2018-06-14T19:12:57.370Z,2.57
2018-06-14T19:15:24.903Z,2.50
2018-06-14T19:17:52.459Z,2.40
2018-06-14T19:20:19.978Z,2.30
2018-06-14T19:22:47.503Z,2.50
2018-06-14T19:25:15.083Z,2.40
2018-06-14T19:27:42.606Z,2.53
2018-06-14T19:30:10.166Z,2.43
2018-06-14T19:32:37.714Z,2.63
2018-06-14T19:35:05.434Z,3.17
2018-06-14T19:37:32.967Z,3.00
2018-06-14T19:40:00.618Z,3.80
2018-06-14T19:42:28.141Z,4.23
2018-06-14T19:44:55.667Z,4.73
2018-06-14T19:47:23.222Z,4.70
2018-06-14T19:49:50.744Z,4.20
2018-06-14T19:52:18.266Z,3.70
2018-06-14T19:54:45.882Z,3.97
2018-06-14T19:57:13.440Z,3.93
2018-06-14T19:59:40.950Z,3.73
2018-06-14T20:02:08.546Z,3.70
2018-06-14T20:04:37.238Z,3.97
2018-06-14T20:07:04.806Z,3.50
2018-06-14T20:09:32.351Z,3.67
2018-06-14T20:11:59.866Z,3.30
2018-06-14T20:14:27.421Z,3.83
2018-06-14T20:16:55.019Z,3.90
2018-06-14T20:19:22.546Z,3.73
2018-06-14T20:21:50.071Z,3.50
2018-06-14T20:24:17.620Z,3.50
2018-06-14T20:26:45.147Z,3.30
2018-06-14T20:29:12.670Z,3.23
2018-06-14T20:31:40.300Z,3.47
2018-06-14T20:34:07.990Z,3.27
2018-06-14T20:36:35.573Z,3.53
2018-06-14T20:39:03.898Z,3.50
2018-06-14T20:41:31.437Z,3.70
2018-06-14T20:43:58.982Z,3.50
2018-06-14T20:46:26.566Z,3.87
2018-06-14T20:48:54.230Z,3.80
2018-06-14T20:51:21.754Z,3.10
2018-06-14T20:53:49.321Z,3.30
2018-06-14T20:56:16.845Z,3.37
2018-06-14T20:58:44.365Z,3.27
2018-06-14T21:01:11.939Z,3.90
2018-06-14T21:03:40.306Z,3.53
2018-06-14T21:06:08.536Z,4.10
2018-06-14T21:08:36.098Z,3.77
2018-06-14T21:11:03.700Z,3.73
2018-06-14T21:13:31.478Z,3.83
2018-06-14T21:15:59.074Z,4.20
2018-06-14T21:18:26.594Z,3.60
2018-06-14T21:20:54.116Z,4.20
2018-06-14T21:23:21.654Z,4.23
2018-06-14T21:25:49.179Z,3.67
2018-06-14T21:28:16.926Z,3.67
2018-06-14T21:30:44.511Z,3.90
2018-06-14T21:33:12.048Z,4.00
2018-06-14T21:35:39.637Z,3.40
2018-06-14T21:38:07.234Z,3.90
2018-06-14T21:40:34.847Z,3.77
2018-06-14T21:43:02.429Z,3.70
2018-06-14T21:45:30.297Z,3.90
2018-06-14T21:47:57.899Z,3.53
2018-06-14T21:50:25.529Z,3.73
2018-06-14T21:52:53.100Z,4.03
2018-06-14T21:55:20.610Z,3.20
2018-06-14T21:57:48.230Z,3.30
2018-06-14T22:00:15.794Z,3.00
2018-06-14T22:02:48.695Z,3.70
2018-06-14T22:05:16.975Z,3.37
2018-06-14T22:07:44.519Z,3.50
2018-06-14T22:10:12.070Z,3.67
2018-06-14T22:12:39.660Z,3.57
2018-06-14T22:15:07.231Z,3.43
2018-06-14T22:17:34.762Z,3.40
2018-06-14T22:20:02.439Z,3.83
2018-06-14T22:22:30.055Z,4.00
2018-06-14T22:24:57.574Z,3.50
2018-06-14T22:27:25.178Z,3.80
2018-06-14T22:29:53.038Z,3.90
2018-06-14T22:32:20.566Z,3.60
2018-06-14T22:34:59.327Z,3.40
2018-06-14T22:37:26.906Z,3.60
2018-06-14T22:39:54.439Z,3.47
2018-06-14T22:42:22.018Z,3.73
2018-06-14T22:44:49.551Z,3.77
2018-06-14T22:47:17.070Z,3.70
2018-06-14T22:49:44.786Z,3.57
2018-06-14T22:53:15.786Z,3.37
2018-06-14T22:55:43.349Z,3.40
2018-06-14T22:58:10.894Z,3.83
2018-06-14T23:01:45.326Z,3.37
2018-06-14T23:04:15.083Z,3.70
2018-06-14T23:06:42.631Z,3.50
2018-06-14T23:10:25.182Z,3.80
2018-06-14T23:12:52.720Z,3.97
2018-06-14T23:15:20.444Z,3.97
2018-06-14T23:17:48.631Z,4.13
2018-06-14T23:20:17.190Z,4.10
2018-06-14T23:22:45.909Z,4.67
2018-06-14T23:25:13.466Z,4.07
2018-06-14T23:27:41.229Z,3.97
2018-06-14T23:30:08.822Z,4.73
2018-06-14T23:32:36.396Z,4.97
2018-06-14T23:35:03.964Z,4.17
2018-06-14T23:37:31.486Z,4.80
2018-06-14T23:39:59.029Z,3.87
2018-06-14T23:42:26.553Z,4.30
2018-06-14T23:44:55.553Z,4.67
2018-06-14T23:47:23.154Z,3.57
2018-06-14T23:49:50.733Z,3.97
2018-06-14T23:52:18.299Z,3.97
2018-06-14T23:54:46.269Z,4.10
2018-06-14T23:57:13.818Z,3.83
2018-06-14T23:59:41.472Z,4.03
